sensor_id;sensor_type;location;lat;lon;timestamp;P1;durP1;ratioP1;P2;durP2;ratioP2
20468;SDS011;10393;52.460;13.322;2023-06-04T00:00:10;0.95;;;0.50;;
20468;SDS011;10393;52.460;13.322;2023-06-04T00:01:52;0.60;;;0.50;;
20468;SDS011;10393;52.460;13.322;2023-06-04T00:03:34;1.92;;;0.77;;
20468;SDS011;10393;52.460;13.322;2023-06-04T00:05:15;1.60;;;0.70;;
20468;SDS011;10393;52.460;13.322;2023-06-04T00:06:56;5.53;;;0.85;;
20468;SDS011;10393;52.460;13.322;2023-06-04T00:08:37;0.98;;;0.50;;
20468;SDS011;10393;52.460;13.322;2023-06-04T00:10:18;2.15;;;0.80;;
20468;SDS011;10393;52.460;13.322;2023-06-04T00:11:59;2.55;;;0.70;;
20468;SDS011;10393;52.460;13.322;2023-06-04T00:13:40;2.13;;;0.73;;
20468;SDS011;10393;52.460;13.322;2023-06-04T00:15:22;0.95;;;0.55;;
20468;SDS011;10393;52.460;13.322;2023-06-04T00:17:03;0.90;;;0.43;;
20468;SDS011;10393;52.460;13.322;2023-06-04T00:18:44;0.85;;;0.73;;
20468;SDS011;10393;52.460;13.322;2023-06-04T00:20:25;0.82;;;0.60;;
20468;SDS011;10393;52.460;13.322;2023-06-04T00:22:07;0.95;;;0.55;;
20468;SDS011;10393;52.460;13.322;2023-06-04T00:23:48;0.93;;;0.70;;
20468;SDS011;10393;52.460;13.322;2023-06-04T00:25:29;0.93;;;0.70;;
20468;SDS011;10393;52.460;13.322;2023-06-04T00:27:10;0.85;;;0.50;;
20468;SDS011;10393;52.460;13.322;2023-06-04T00:28:53;1.45;;;0.70;;
20468;SDS011;10393;52.460;13.322;2023-06-04T00:30:35;0.77;;;0.70;;
20468;SDS011;10393;52.460;13.322;2023-06-04T00:32:16;0.60;;;0.60;;
20468;SDS011;10393;52.460;13.322;2023-06-04T00:33:57;2.92;;;0.70;;
20468;SDS011;10393;52.460;13.322;2023-06-04T00:35:38;2.45;;;0.70;;
20468;SDS011;10393;52.460;13.322;2023-06-04T00:37:19;3.05;;;0.55;;
20468;SDS011;10393;52.460;13.322;2023-06-04T00:39:01;1.92;;;0.50;;
20468;SDS011;10393;52.460;13.322;2023-06-04T00:40:42;0.60;;;0.40;;
20468;SDS011;10393;52.460;13.322;2023-06-04T00:42:24;2.05;;;0.60;;
20468;SDS011;10393;52.460;13.322;2023-06-04T00:44:05;2.28;;;0.70;;
20468;SDS011;10393;52.460;13.322;2023-06-04T00:45:46;3.20;;;0.57;;
20468;SDS011;10393;52.460;13.322;2023-06-04T00:47:28;2.72;;;0.65;;
20468;SDS011;10393;52.460;13.322;2023-06-04T00:49:09;0.88;;;0.57;;
20468;SDS011;10393;52.460;13.322;2023-06-04T00:50:53;1.63;;;0.63;;
20468;SDS011;10393;52.460;13.322;2023-06-04T00:52:35;0.47;;;0.47;;
20468;SDS011;10393;52.460;13.322;2023-06-04T00:54:16;0.80;;;0.47;;
20468;SDS011;10393;52.460;13.322;2023-06-04T00:55:58;0.95;;;0.57;;
20468;SDS011;10393;52.460;13.322;2023-06-04T00:57:39;1.17;;;0.73;;
20468;SDS011;10393;52.460;13.322;2023-06-04T00:59:21;2.38;;;0.70;;
20468;SDS011;10393;52.460;13.322;2023-06-04T01:01:03;2.03;;;0.80;;
20468;SDS011;10393;52.460;13.322;2023-06-04T01:02:45;1.95;;;0.50;;
20468;SDS011;10393;52.460;13.322;2023-06-04T01:04:35;1.88;;;0.50;;
20468;SDS011;10393;52.460;13.322;2023-06-04T01:08:01;2.15;;;0.60;;
20468;SDS011;10393;52.460;13.322;2023-06-04T01:09:43;1.58;;;0.60;;
20468;SDS011;10393;52.460;13.322;2023-06-04T01:11:34;0.65;;;0.60;;
20468;SDS011;10393;52.460;13.322;2023-06-04T01:13:16;0.90;;;0.43;;
20468;SDS011;10393;52.460;13.322;2023-06-04T01:14:57;2.00;;;0.43;;
20468;SDS011;10393;52.460;13.322;2023-06-04T01:16:39;2.05;;;0.50;;
20468;SDS011;10393;52.460;13.322;2023-06-04T01:18:23;0.95;;;0.55;;
20468;SDS011;10393;52.460;13.322;2023-06-04T01:21:53;1.17;;;0.50;;
20468;SDS011;10393;52.460;13.322;2023-06-04T01:23:46;4.13;;;0.70;;
20468;SDS011;10393;52.460;13.322;2023-06-04T01:25:30;0.85;;;0.47;;
20468;SDS011;10393;52.460;13.322;2023-06-04T01:27:12;3.03;;;0.70;;
20468;SDS011;10393;52.460;13.322;2023-06-04T01:28:56;0.98;;;0.40;;
20468;SDS011;10393;52.460;13.322;2023-06-04T01:30:38;1.83;;;0.60;;
20468;SDS011;10393;52.460;13.322;2023-06-04T01:32:26;4.75;;;0.57;;
20468;SDS011;10393;52.460;13.322;2023-06-04T01:34:08;1.00;;;0.43;;
20468;SDS011;10393;52.460;13.322;2023-06-04T01:35:50;2.27;;;0.67;;
20468;SDS011;10393;52.460;13.322;2023-06-04T01:37:31;0.60;;;0.30;;
20468;SDS011;10393;52.460;13.322;2023-06-04T01:39:13;3.00;;;0.60;;
20468;SDS011;10393;52.460;13.322;2023-06-04T01:40:56;1.20;;;0.52;;
20468;SDS011;10393;52.460;13.322;2023-06-04T01:42:41;2.97;;;0.43;;
20468;SDS011;10393;52.460;13.322;2023-06-04T01:44:22;0.60;;;0.40;;
20468;SDS011;10393;52.460;13.322;2023-06-04T01:46:03;0.93;;;0.50;;
20468;SDS011;10393;52.460;13.322;2023-06-04T01:47:46;1.45;;;0.60;;
20468;SDS011;10393;52.460;13.322;2023-06-04T01:49:27;1.67;;;0.70;;
20468;SDS011;10393;52.460;13.322;2023-06-04T01:51:08;1.37;;;0.80;;
20468;SDS011;10393;52.460;13.322;2023-06-04T01:52:49;1.17;;;0.50;;
20468;SDS011;10393;52.460;13.322;2023-06-04T01:54:31;2.03;;;0.50;;
20468;SDS011;10393;52.460;13.322;2023-06-04T01:56:14;2.83;;;0.50;;
20468;SDS011;10393;52.460;13.322;2023-06-04T01:57:55;3.17;;;0.70;;
20468;SDS011;10393;52.460;13.322;2023-06-04T01:59:36;0.98;;;0.65;;
20468;SDS011;10393;52.460;13.322;2023-06-04T02:01:18;0.57;;;0.47;;
20468;SDS011;10393;52.460;13.322;2023-06-04T02:03:00;0.70;;;0.47;;
20468;SDS011;10393;52.460;13.322;2023-06-04T02:04:41;0.70;;;0.40;;
20468;SDS011;10393;52.460;13.322;2023-06-04T02:06:22;0.30;;;0.30;;
20468;SDS011;10393;52.460;13.322;2023-06-04T02:08:05;1.00;;;0.50;;
20468;SDS011;10393;52.460;13.322;2023-06-04T02:09:47;2.80;;;0.60;;
20468;SDS011;10393;52.460;13.322;2023-06-04T02:11:28;2.20;;;0.40;;
20468;SDS011;10393;52.460;13.322;2023-06-04T02:13:09;2.50;;;0.50;;
20468;SDS011;10393;52.460;13.322;2023-06-04T02:14:50;1.17;;;0.55;;
20468;SDS011;10393;52.460;13.322;2023-06-04T02:16:31;0.75;;;0.43;;
20468;SDS011;10393;52.460;13.322;2023-06-04T02:18:13;1.85;;;0.30;;
20468;SDS011;10393;52.460;13.322;2023-06-04T02:19:58;3.33;;;0.30;;
20468;SDS011;10393;52.460;13.322;2023-06-04T02:21:40;2.10;;;0.63;;
20468;SDS011;10393;52.460;13.322;2023-06-04T02:23:21;0.80;;;0.53;;
20468;SDS011;10393;52.460;13.322;2023-06-04T02:25:03;2.13;;;0.70;;
20468;SDS011;10393;52.460;13.322;2023-06-04T02:26:44;2.10;;;0.65;;
20468;SDS011;10393;52.460;13.322;2023-06-04T02:28:26;1.75;;;0.50;;
20468;SDS011;10393;52.460;13.322;2023-06-04T02:30:07;2.35;;;0.60;;
20468;SDS011;10393;52.460;13.322;2023-06-04T02:31:48;0.52;;;0.47;;
20468;SDS011;10393;52.460;13.322;2023-06-04T02:33:30;1.02;;;0.60;;
20468;SDS011;10393;52.460;13.322;2023-06-04T02:35:11;0.90;;;0.43;;
20468;SDS011;10393;52.460;13.322;2023-06-04T02:36:52;1.50;;;0.73;;
20468;SDS011;10393;52.460;13.322;2023-06-04T02:38:34;0.95;;;0.50;;
20468;SDS011;10393;52.460;13.322;2023-06-04T02:40:15;6.30;;;0.80;;
20468;SDS011;10393;52.460;13.322;2023-06-04T02:41:57;0.93;;;0.50;;
20468;SDS011;10393;52.460;13.322;2023-06-04T02:43:38;0.80;;;0.40;;
20468;SDS011;10393;52.460;13.322;2023-06-04T02:45:19;0.98;;;0.70;;
20468;SDS011;10393;52.460;13.322;2023-06-04T02:47:00;2.80;;;0.40;;
20468;SDS011;10393;52.460;13.322;2023-06-04T02:48:41;0.80;;;0.60;;
20468;SDS011;10393;52.460;13.322;2023-06-04T02:50:23;0.80;;;0.65;;
20468;SDS011;10393;52.460;13.322;2023-06-04T02:52:04;5.07;;;0.60;;
20468;SDS011;10393;52.460;13.322;2023-06-04T02:53:45;1.60;;;0.60;;
20468;SDS011;10393;52.460;13.322;2023-06-04T02:55:27;1.70;;;0.68;;
20468;SDS011;10393;52.460;13.322;2023-06-04T02:57:08;1.00;;;0.40;;
20468;SDS011;10393;52.460;13.322;2023-06-04T02:58:52;1.08;;;0.63;;
20468;SDS011;10393;52.460;13.322;2023-06-04T03:00:35;1.30;;;0.60;;
20468;SDS011;10393;52.460;13.322;2023-06-04T03:02:16;4.18;;;0.75;;
20468;SDS011;10393;52.460;13.322;2023-06-04T03:03:58;1.15;;;0.60;;
20468;SDS011;10393;52.460;13.322;2023-06-04T03:05:39;0.95;;;0.50;;
20468;SDS011;10393;52.460;13.322;2023-06-04T03:07:21;0.82;;;0.60;;
20468;SDS011;10393;52.460;13.322;2023-06-04T03:09:02;1.70;;;0.50;;
20468;SDS011;10393;52.460;13.322;2023-06-04T03:10:44;1.23;;;0.60;;
20468;SDS011;10393;52.460;13.322;2023-06-04T03:12:25;2.07;;;0.50;;
20468;SDS011;10393;52.460;13.322;2023-06-04T03:14:06;2.03;;;0.57;;
20468;SDS011;10393;52.460;13.322;2023-06-04T03:15:47;1.17;;;0.60;;
20468;SDS011;10393;52.460;13.322;2023-06-04T03:17:29;0.43;;;0.40;;
20468;SDS011;10393;52.460;13.322;2023-06-04T03:19:11;3.20;;;0.60;;
20468;SDS011;10393;52.460;13.322;2023-06-04T03:20:53;2.30;;;0.50;;
20468;SDS011;10393;52.460;13.322;2023-06-04T03:22:34;0.80;;;0.50;;
20468;SDS011;10393;52.460;13.322;2023-06-04T03:24:15;1.40;;;0.70;;
20468;SDS011;10393;52.460;13.322;2023-06-04T03:25:57;3.05;;;0.50;;
20468;SDS011;10393;52.460;13.322;2023-06-04T03:27:38;1.30;;;0.30;;
20468;SDS011;10393;52.460;13.322;2023-06-04T03:29:20;0.43;;;0.30;;
20468;SDS011;10393;52.460;13.322;2023-06-04T03:31:02;0.77;;;0.43;;
20468;SDS011;10393;52.460;13.322;2023-06-04T03:32:43;0.55;;;0.38;;
20468;SDS011;10393;52.460;13.322;2023-06-04T03:34:26;1.15;;;0.70;;
20468;SDS011;10393;52.460;13.322;2023-06-04T03:36:11;0.50;;;0.50;;
20468;SDS011;10393;52.460;13.322;2023-06-04T03:37:53;0.70;;;0.50;;
20468;SDS011;10393;52.460;13.322;2023-06-04T03:39:35;3.22;;;0.73;;
20468;SDS011;10393;52.460;13.322;2023-06-04T03:41:19;1.10;;;0.70;;
20468;SDS011;10393;52.460;13.322;2023-06-04T03:43:01;0.60;;;0.40;;
20468;SDS011;10393;52.460;13.322;2023-06-04T03:44:45;2.00;;;0.57;;
20468;SDS011;10393;52.460;13.322;2023-06-04T03:46:27;2.90;;;0.40;;
20468;SDS011;10393;52.460;13.322;2023-06-04T03:48:12;1.05;;;0.63;;
20468;SDS011;10393;52.460;13.322;2023-06-04T03:49:53;1.27;;;0.63;;
20468;SDS011;10393;52.460;13.322;2023-06-04T03:51:34;0.50;;;0.40;;
20468;SDS011;10393;52.460;13.322;2023-06-04T03:53:16;0.65;;;0.35;;
20468;SDS011;10393;52.460;13.322;2023-06-04T03:54:58;0.88;;;0.30;;
20468;SDS011;10393;52.460;13.322;2023-06-04T03:56:45;2.45;;;0.88;;
20468;SDS011;10393;52.460;13.322;2023-06-04T03:58:26;1.43;;;0.50;;
20468;SDS011;10393;52.460;13.322;2023-06-04T04:00:09;1.10;;;0.70;;
20468;SDS011;10393;52.460;13.322;2023-06-04T04:02:00;1.38;;;0.80;;
20468;SDS011;10393;52.460;13.322;2023-06-04T04:03:42;0.40;;;0.40;;
20468;SDS011;10393;52.460;13.322;2023-06-04T04:05:23;4.22;;;0.60;;
20468;SDS011;10393;52.460;13.322;2023-06-04T04:07:05;1.98;;;0.60;;
20468;SDS011;10393;52.460;13.322;2023-06-04T04:08:47;0.75;;;0.57;;
20468;SDS011;10393;52.460;13.322;2023-06-04T04:10:30;4.88;;;0.55;;
20468;SDS011;10393;52.460;13.322;2023-06-04T04:12:11;2.10;;;0.40;;
20468;SDS011;10393;52.460;13.322;2023-06-04T04:13:52;1.17;;;0.60;;
20468;SDS011;10393;52.460;13.322;2023-06-04T04:15:36;0.70;;;0.47;;
20468;SDS011;10393;52.460;13.322;2023-06-04T04:17:18;0.95;;;0.50;;
20468;SDS011;10393;52.460;13.322;2023-06-04T04:19:00;1.92;;;0.50;;
20468;SDS011;10393;52.460;13.322;2023-06-04T04:20:41;2.83;;;0.57;;
20468;SDS011;10393;52.460;13.322;2023-06-04T04:22:24;3.10;;;0.60;;
20468;SDS011;10393;52.460;13.322;2023-06-04T04:24:05;5.28;;;0.90;;
20468;SDS011;10393;52.460;13.322;2023-06-04T04:25:47;0.35;;;0.35;;
20468;SDS011;10393;52.460;13.322;2023-06-04T04:27:29;1.50;;;0.82;;
20468;SDS011;10393;52.460;13.322;2023-06-04T04:29:11;1.10;;;0.77;;
20468;SDS011;10393;52.460;13.322;2023-06-04T04:30:53;2.53;;;0.70;;
20468;SDS011;10393;52.460;13.322;2023-06-04T04:32:34;1.38;;;0.57;;
20468;SDS011;10393;52.460;13.322;2023-06-04T04:34:20;0.50;;;0.50;;
20468;SDS011;10393;52.460;13.322;2023-06-04T04:36:03;1.48;;;0.60;;
20468;SDS011;10393;52.460;13.322;2023-06-04T04:37:45;0.55;;;0.50;;
20468;SDS011;10393;52.460;13.322;2023-06-04T04:39:29;2.45;;;0.52;;
20468;SDS011;10393;52.460;13.322;2023-06-04T04:41:12;0.75;;;0.60;;
20468;SDS011;10393;52.460;13.322;2023-06-04T04:42:53;0.98;;;0.50;;
20468;SDS011;10393;52.460;13.322;2023-06-04T04:44:35;1.40;;;0.52;;
20468;SDS011;10393;52.460;13.322;2023-06-04T04:46:16;8.95;;;0.75;;
20468;SDS011;10393;52.460;13.322;2023-06-04T04:47:58;0.70;;;0.43;;
20468;SDS011;10393;52.460;13.322;2023-06-04T04:49:39;0.65;;;0.60;;
20468;SDS011;10393;52.460;13.322;2023-06-04T04:51:20;1.13;;;0.40;;
20468;SDS011;10393;52.460;13.322;2023-06-04T04:53:02;0.80;;;0.50;;
20468;SDS011;10393;52.460;13.322;2023-06-04T04:54:44;1.20;;;0.75;;
20468;SDS011;10393;52.460;13.322;2023-06-04T04:56:26;1.00;;;0.50;;
20468;SDS011;10393;52.460;13.322;2023-06-04T04:58:07;0.70;;;0.50;;
20468;SDS011;10393;52.460;13.322;2023-06-04T04:59:49;0.57;;;0.50;;
20468;SDS011;10393;52.460;13.322;2023-06-04T05:01:31;2.50;;;0.77;;
20468;SDS011;10393;52.460;13.322;2023-06-04T05:03:12;9.80;;;0.80;;
20468;SDS011;10393;52.460;13.322;2023-06-04T05:04:54;0.77;;;0.50;;
20468;SDS011;10393;52.460;13.322;2023-06-04T05:06:36;3.55;;;0.60;;
20468;SDS011;10393;52.460;13.322;2023-06-04T05:08:18;1.13;;;0.70;;
20468;SDS011;10393;52.460;13.322;2023-06-04T05:09:59;1.17;;;0.52;;
20468;SDS011;10393;52.460;13.322;2023-06-04T05:11:41;3.33;;;0.50;;
20468;SDS011;10393;52.460;13.322;2023-06-04T05:13:22;0.98;;;0.65;;
20468;SDS011;10393;52.460;13.322;2023-06-04T05:15:09;3.17;;;0.60;;
20468;SDS011;10393;52.460;13.322;2023-06-04T05:16:53;0.70;;;0.63;;
20468;SDS011;10393;52.460;13.322;2023-06-04T05:18:37;0.88;;;0.70;;
20468;SDS011;10393;52.460;13.322;2023-06-04T05:20:22;4.72;;;0.70;;
20468;SDS011;10393;52.460;13.322;2023-06-04T05:22:04;1.65;;;0.82;;
20468;SDS011;10393;52.460;13.322;2023-06-04T05:23:46;1.98;;;0.80;;
20468;SDS011;10393;52.460;13.322;2023-06-04T05:25:29;2.88;;;0.60;;
20468;SDS011;10393;52.460;13.322;2023-06-04T05:27:11;9.10;;;0.75;;
20468;SDS011;10393;52.460;13.322;2023-06-04T05:28:53;2.42;;;0.75;;
20468;SDS011;10393;52.460;13.322;2023-06-04T05:30:34;1.15;;;0.60;;
20468;SDS011;10393;52.460;13.322;2023-06-04T05:32:16;1.63;;;0.60;;
20468;SDS011;10393;52.460;13.322;2023-06-04T05:34:01;1.17;;;0.75;;
20468;SDS011;10393;52.460;13.322;2023-06-04T05:35:45;0.68;;;0.68;;
20468;SDS011;10393;52.460;13.322;2023-06-04T05:37:28;1.05;;;0.70;;
20468;SDS011;10393;52.460;13.322;2023-06-04T05:39:10;1.90;;;0.70;;
20468;SDS011;10393;52.460;13.322;2023-06-04T05:41:00;2.40;;;0.90;;
20468;SDS011;10393;52.460;13.322;2023-06-04T05:42:46;2.45;;;0.70;;
20468;SDS011;10393;52.460;13.322;2023-06-04T05:44:28;1.95;;;0.63;;
20468;SDS011;10393;52.460;13.322;2023-06-04T05:46:09;1.70;;;0.70;;
20468;SDS011;10393;52.460;13.322;2023-06-04T05:47:53;4.68;;;0.70;;
20468;SDS011;10393;52.460;13.322;2023-06-04T05:49:35;1.08;;;0.70;;
20468;SDS011;10393;52.460;13.322;2023-06-04T05:51:16;1.63;;;0.70;;
20468;SDS011;10393;52.460;13.322;2023-06-04T05:52:59;2.40;;;1.20;;
20468;SDS011;10393;52.460;13.322;2023-06-04T05:54:40;3.33;;;0.70;;
20468;SDS011;10393;52.460;13.322;2023-06-04T05:56:21;1.05;;;0.68;;
20468;SDS011;10393;52.460;13.322;2023-06-04T05:58:03;3.50;;;0.70;;
20468;SDS011;10393;52.460;13.322;2023-06-04T05:59:44;2.95;;;0.80;;
20468;SDS011;10393;52.460;13.322;2023-06-04T06:01:28;0.98;;;0.70;;
20468;SDS011;10393;52.460;13.322;2023-06-04T06:03:10;4.20;;;0.60;;
20468;SDS011;10393;52.460;13.322;2023-06-04T06:04:56;1.10;;;0.65;;
20468;SDS011;10393;52.460;13.322;2023-06-04T06:06:38;1.98;;;1.35;;
20468;SDS011;10393;52.460;13.322;2023-06-04T06:08:19;2.90;;;1.00;;
20468;SDS011;10393;52.460;13.322;2023-06-04T06:10:01;1.92;;;0.90;;
20468;SDS011;10393;52.460;13.322;2023-06-04T06:11:45;4.97;;;2.63;;
20468;SDS011;10393;52.460;13.322;2023-06-04T06:13:26;3.90;;;0.82;;
20468;SDS011;10393;52.460;13.322;2023-06-04T06:15:08;0.88;;;0.80;;
20468;SDS011;10393;52.460;13.322;2023-06-04T06:16:50;3.67;;;0.80;;
20468;SDS011;10393;52.460;13.322;2023-06-04T06:18:33;1.20;;;0.47;;
20468;SDS011;10393;52.460;13.322;2023-06-04T06:20:15;2.40;;;0.82;;
20468;SDS011;10393;52.460;13.322;2023-06-04T06:21:58;0.80;;;0.80;;
20468;SDS011;10393;52.460;13.322;2023-06-04T06:23:41;1.02;;;0.70;;
20468;SDS011;10393;52.460;13.322;2023-06-04T06:25:23;1.42;;;0.75;;
20468;SDS011;10393;52.460;13.322;2023-06-04T06:27:16;1.38;;;0.90;;
20468;SDS011;10393;52.460;13.322;2023-06-04T06:28:58;0.60;;;0.60;;
20468;SDS011;10393;52.460;13.322;2023-06-04T06:30:39;0.57;;;0.57;;
20468;SDS011;10393;52.460;13.322;2023-06-04T06:32:20;1.15;;;0.60;;
20468;SDS011;10393;52.460;13.322;2023-06-04T06:34:01;1.00;;;0.70;;
20468;SDS011;10393;52.460;13.322;2023-06-04T06:35:43;3.80;;;0.90;;
20468;SDS011;10393;52.460;13.322;2023-06-04T06:37:26;2.05;;;0.70;;
20468;SDS011;10393;52.460;13.322;2023-06-04T06:39:07;1.10;;;0.60;;
20468;SDS011;10393;52.460;13.322;2023-06-04T06:40:49;4.32;;;0.80;;
20468;SDS011;10393;52.460;13.322;2023-06-04T06:42:33;1.75;;;1.13;;
20468;SDS011;10393;52.460;13.322;2023-06-04T06:44:14;2.88;;;0.85;;
20468;SDS011;10393;52.460;13.322;2023-06-04T06:45:55;0.70;;;0.70;;
20468;SDS011;10393;52.460;13.322;2023-06-04T06:47:36;2.88;;;0.50;;
20468;SDS011;10393;52.460;13.322;2023-06-04T06:49:18;1.67;;;0.70;;
20468;SDS011;10393;52.460;13.322;2023-06-04T06:50:59;1.08;;;0.60;;
20468;SDS011;10393;52.460;13.322;2023-06-04T06:52:40;0.50;;;0.50;;
20468;SDS011;10393;52.460;13.322;2023-06-04T06:54:21;0.60;;;0.60;;
20468;SDS011;10393;52.460;13.322;2023-06-04T06:56:02;0.57;;;0.57;;
20468;SDS011;10393;52.460;13.322;2023-06-04T06:57:44;0.57;;;0.57;;
20468;SDS011;10393;52.460;13.322;2023-06-04T06:59:25;0.50;;;0.50;;
20468;SDS011;10393;52.460;13.322;2023-06-04T07:01:06;0.65;;;0.60;;
20468;SDS011;10393;52.460;13.322;2023-06-04T07:02:47;0.50;;;0.50;;
20468;SDS011;10393;52.460;13.322;2023-06-04T07:04:28;0.80;;;0.80;;
20468;SDS011;10393;52.460;13.322;2023-06-04T07:06:10;2.40;;;0.70;;
20468;SDS011;10393;52.460;13.322;2023-06-04T07:07:51;0.65;;;0.65;;
20468;SDS011;10393;52.460;13.322;2023-06-04T07:09:32;0.63;;;0.60;;
20468;SDS011;10393;52.460;13.322;2023-06-04T07:11:13;0.65;;;0.65;;
20468;SDS011;10393;52.460;13.322;2023-06-04T07:12:56;0.80;;;0.80;;
20468;SDS011;10393;52.460;13.322;2023-06-04T07:14:37;0.50;;;0.50;;
20468;SDS011;10393;52.460;13.322;2023-06-04T07:16:19;0.63;;;0.63;;
20468;SDS011;10393;52.460;13.322;2023-06-04T07:18:00;2.47;;;0.70;;
20468;SDS011;10393;52.460;13.322;2023-06-04T07:19:41;0.70;;;0.70;;
20468;SDS011;10393;52.460;13.322;2023-06-04T07:21:22;1.02;;;0.88;;
20468;SDS011;10393;52.460;13.322;2023-06-04T07:23:04;0.88;;;0.88;;
20468;SDS011;10393;52.460;13.322;2023-06-04T07:24:47;1.08;;;0.95;;
20468;SDS011;10393;52.460;13.322;2023-06-04T07:26:28;1.65;;;1.00;;
20468;SDS011;10393;52.460;13.322;2023-06-04T07:28:10;1.63;;;1.20;;
20468;SDS011;10393;52.460;13.322;2023-06-04T07:29:52;1.13;;;1.13;;
20468;SDS011;10393;52.460;13.322;2023-06-04T07:31:33;2.30;;;1.17;;
20468;SDS011;10393;52.460;13.322;2023-06-04T07:33:14;1.52;;;1.50;;
20468;SDS011;10393;52.460;13.322;2023-06-04T07:34:55;1.23;;;1.10;;
20468;SDS011;10393;52.460;13.322;2023-06-04T07:36:37;1.23;;;1.23;;
20468;SDS011;10393;52.460;13.322;2023-06-04T07:38:18;1.33;;;1.23;;
20468;SDS011;10393;52.460;13.322;2023-06-04T07:39:59;1.08;;;1.00;;
20468;SDS011;10393;52.460;13.322;2023-06-04T07:41:40;1.73;;;1.02;;
20468;SDS011;10393;52.460;13.322;2023-06-04T07:43:21;1.00;;;1.00;;
20468;SDS011;10393;52.460;13.322;2023-06-04T07:45:03;2.15;;;1.55;;
20468;SDS011;10393;52.460;13.322;2023-06-04T07:46:44;1.75;;;1.30;;
20468;SDS011;10393;52.460;13.322;2023-06-04T07:48:25;1.10;;;1.10;;
20468;SDS011;10393;52.460;13.322;2023-06-04T07:50:10;1.23;;;1.20;;
20468;SDS011;10393;52.460;13.322;2023-06-04T07:51:51;1.88;;;1.50;;
20468;SDS011;10393;52.460;13.322;2023-06-04T07:53:33;1.60;;;1.50;;
20468;SDS011;10393;52.460;13.322;2023-06-04T07:55:16;1.85;;;1.75;;
20468;SDS011;10393;52.460;13.322;2023-06-04T07:56:57;1.60;;;1.48;;
20468;SDS011;10393;52.460;13.322;2023-06-04T07:58:38;2.03;;;2.03;;
20468;SDS011;10393;52.460;13.322;2023-06-04T08:00:20;1.40;;;1.40;;
20468;SDS011;10393;52.460;13.322;2023-06-04T08:02:02;1.40;;;1.30;;
20468;SDS011;10393;52.460;13.322;2023-06-04T08:03:43;2.28;;;1.15;;
20468;SDS011;10393;52.460;13.322;2023-06-04T08:05:24;1.10;;;1.10;;
20468;SDS011;10393;52.460;13.322;2023-06-04T08:07:06;1.40;;;1.40;;
20468;SDS011;10393;52.460;13.322;2023-06-04T08:08:47;1.40;;;1.30;;
20468;SDS011;10393;52.460;13.322;2023-06-04T08:10:30;1.20;;;1.20;;
20468;SDS011;10393;52.460;13.322;2023-06-04T08:12:11;1.27;;;1.27;;
20468;SDS011;10393;52.460;13.322;2023-06-04T08:13:52;1.45;;;1.35;;
20468;SDS011;10393;52.460;13.322;2023-06-04T08:15:33;1.70;;;1.60;;
20468;SDS011;10393;52.460;13.322;2023-06-04T08:17:15;1.50;;;1.50;;
20468;SDS011;10393;52.460;13.322;2023-06-04T08:18:56;1.70;;;1.70;;
20468;SDS011;10393;52.460;13.322;2023-06-04T08:20:37;2.17;;;2.08;;
20468;SDS011;10393;52.460;13.322;2023-06-04T08:22:18;2.35;;;2.30;;
20468;SDS011;10393;52.460;13.322;2023-06-04T08:23:59;2.10;;;2.00;;
20468;SDS011;10393;52.460;13.322;2023-06-04T08:25:41;1.45;;;1.45;;
20468;SDS011;10393;52.460;13.322;2023-06-04T08:27:22;2.80;;;1.45;;
20468;SDS011;10393;52.460;13.322;2023-06-04T08:29:03;1.65;;;1.00;;
20468;SDS011;10393;52.460;13.322;2023-06-04T08:30:45;0.90;;;0.90;;
20468;SDS011;10393;52.460;13.322;2023-06-04T08:32:26;0.85;;;0.70;;
20468;SDS011;10393;52.460;13.322;2023-06-04T08:34:07;0.70;;;0.60;;
20468;SDS011;10393;52.460;13.322;2023-06-04T08:35:48;0.50;;;0.50;;
20468;SDS011;10393;52.460;13.322;2023-06-04T08:37:29;0.30;;;0.30;;
20468;SDS011;10393;52.460;13.322;2023-06-04T08:39:10;0.60;;;0.45;;
20468;SDS011;10393;52.460;13.322;2023-06-04T08:40:52;0.75;;;0.40;;
20468;SDS011;10393;52.460;13.322;2023-06-04T08:42:42;1.38;;;0.40;;
20468;SDS011;10393;52.460;13.322;2023-06-04T08:44:27;0.30;;;0.25;;
20468;SDS011;10393;52.460;13.322;2023-06-04T08:46:09;0.95;;;0.40;;
20468;SDS011;10393;52.460;13.322;2023-06-04T08:47:51;2.45;;;0.35;;
20468;SDS011;10393;52.460;13.322;2023-06-04T08:49:35;0.50;;;0.50;;
20468;SDS011;10393;52.460;13.322;2023-06-04T08:51:16;0.40;;;0.40;;
20468;SDS011;10393;52.460;13.322;2023-06-04T08:52:58;1.00;;;0.50;;
20468;SDS011;10393;52.460;13.322;2023-06-04T08:54:39;2.45;;;0.50;;
20468;SDS011;10393;52.460;13.322;2023-06-04T08:56:21;2.15;;;0.30;;
20468;SDS011;10393;52.460;13.322;2023-06-04T08:58:02;0.55;;;0.50;;
20468;SDS011;10393;52.460;13.322;2023-06-04T08:59:44;0.40;;;0.30;;
20468;SDS011;10393;52.460;13.322;2023-06-04T09:01:26;0.15;;;0.15;;
20468;SDS011;10393;52.460;13.322;2023-06-04T09:03:07;2.95;;;0.50;;
20468;SDS011;10393;52.460;13.322;2023-06-04T09:04:48;0.45;;;0.40;;
20468;SDS011;10393;52.460;13.322;2023-06-04T09:06:30;0.32;;;0.20;;
20468;SDS011;10393;52.460;13.322;2023-06-04T09:08:13;0.30;;;0.20;;
20468;SDS011;10393;52.460;13.322;2023-06-04T09:09:57;0.32;;;0.20;;
20468;SDS011;10393;52.460;13.322;2023-06-04T09:11:41;1.20;;;0.35;;
20468;SDS011;10393;52.460;13.322;2023-06-04T09:13:25;1.67;;;0.20;;
20468;SDS011;10393;52.460;13.322;2023-06-04T09:15:08;0.80;;;0.28;;
20468;SDS011;10393;52.460;13.322;2023-06-04T09:16:51;0.40;;;0.30;;
20468;SDS011;10393;52.460;13.322;2023-06-04T09:18:32;3.38;;;0.40;;
20468;SDS011;10393;52.460;13.322;2023-06-04T09:20:23;3.13;;;0.30;;
20468;SDS011;10393;52.460;13.322;2023-06-04T09:22:04;0.50;;;0.30;;
20468;SDS011;10393;52.460;13.322;2023-06-04T09:23:46;3.75;;;0.35;;
20468;SDS011;10393;52.460;13.322;2023-06-04T09:25:27;3.60;;;0.40;;
20468;SDS011;10393;52.460;13.322;2023-06-04T09:27:18;0.85;;;0.22;;
20468;SDS011;10393;52.460;13.322;2023-06-04T09:28:59;0.65;;;0.20;;
20468;SDS011;10393;52.460;13.322;2023-06-04T09:30:50;2.20;;;0.70;;
20468;SDS011;10393;52.460;13.322;2023-06-04T09:32:31;3.85;;;0.40;;
20468;SDS011;10393;52.460;13.322;2023-06-04T09:34:12;0.30;;;0.30;;
20468;SDS011;10393;52.460;13.322;2023-06-04T09:35:57;0.93;;;0.30;;
20468;SDS011;10393;52.460;13.322;2023-06-04T09:37:39;0.75;;;0.30;;
20468;SDS011;10393;52.460;13.322;2023-06-04T09:39:20;1.23;;;0.30;;
20468;SDS011;10393;52.460;13.322;2023-06-04T09:41:01;1.13;;;0.50;;
20468;SDS011;10393;52.460;13.322;2023-06-04T09:42:47;2.05;;;0.38;;
20468;SDS011;10393;52.460;13.322;2023-06-04T09:44:43;0.40;;;0.30;;
20468;SDS011;10393;52.460;13.322;2023-06-04T09:46:25;0.30;;;0.30;;
20468;SDS011;10393;52.460;13.322;2023-06-04T09:48:07;0.28;;;0.10;;
20468;SDS011;10393;52.460;13.322;2023-06-04T09:49:49;0.47;;;0.32;;
20468;SDS011;10393;52.460;13.322;2023-06-04T09:51:31;0.57;;;0.30;;
20468;SDS011;10393;52.460;13.322;2023-06-04T09:53:13;0.38;;;0.30;;
20468;SDS011;10393;52.460;13.322;2023-06-04T09:54:55;2.47;;;0.30;;
20468;SDS011;10393;52.460;13.322;2023-06-04T09:56:42;4.05;;;0.32;;
20468;SDS011;10393;52.460;13.322;2023-06-04T09:58:25;3.03;;;0.40;;
20468;SDS011;10393;52.460;13.322;2023-06-04T10:00:07;0.32;;;0.32;;
20468;SDS011;10393;52.460;13.322;2023-06-04T10:01:51;1.85;;;0.45;;
20468;SDS011;10393;52.460;13.322;2023-06-04T10:03:36;0.40;;;0.30;;
20468;SDS011;10393;52.460;13.322;2023-06-04T10:05:18;1.05;;;0.50;;
20468;SDS011;10393;52.460;13.322;2023-06-04T10:07:03;0.40;;;0.30;;
20468;SDS011;10393;52.460;13.322;2023-06-04T10:08:46;0.40;;;0.30;;